createdAt,value
2018-06-09T00:00:23.913Z,24.8
2018-06-09T00:10:23.106Z,24.9
2018-06-09T00:20:22.306Z,24.9
2018-06-09T00:30:21.749Z,24.9
2018-06-09T00:40:21.029Z,24.9
2018-06-09T00:50:20.132Z,21.4
2018-06-09T01:00:18.991Z,22.2
2018-06-09T01:10:18.282Z,22.7
2018-06-09T01:20:17.350Z,23.3
2018-06-09T01:30:16.866Z,23.9
2018-06-09T01:40:16.145Z,24.2
2018-06-09T01:50:15.188Z,24.3
2018-06-09T02:00:14.736Z,24.4
2018-06-09T02:10:14.736Z,24.4
2018-06-09T02:20:12.838Z,24.4
2018-06-09T02:30:12.368Z,24.4
2018-06-09T02:40:11.848Z,24.4
2018-06-09T02:50:10.596Z,24.4
2018-06-09T03:00:09.875Z,24.4
2018-06-09T03:10:09.728Z,24.4
2018-06-09T03:20:08.523Z,24.4
2018-06-09T03:30:07.739Z,24.4
2018-06-09T03:40:06.708Z,24.3
2018-06-09T03:50:07.126Z,24.3
2018-06-09T04:00:05.192Z,24.3
2018-06-09T04:10:04.700Z,24.3
2018-06-09T04:20:04.206Z,24.4
2018-06-09T04:30:03.452Z,24.4
2018-06-09T04:40:02.811Z,24.4
2018-06-09T04:50:01.602Z,24.4
2018-06-09T05:00:01.816Z,24.4
2018-06-09T05:10:00.319Z,24.4
2018-06-09T05:19:59.281Z,24.4
2018-06-09T05:29:58.679Z,24.4
2018-06-09T05:39:57.896Z,24.5
2018-06-09T05:49:57.005Z,24.4
2018-06-09T05:59:56.025Z,24.3
2018-06-09T06:09:55.140Z,24.3
2018-06-09T06:19:55.425Z,24.5
2018-06-09T06:29:53.606Z,24.5
2018-06-09T06:39:53.478Z,25
2018-06-09T06:49:52.306Z,24.6
2018-06-09T06:59:52.321Z,24.8
2018-06-09T07:09:51.223Z,24.8
2018-06-09T07:19:50.360Z,25.4
2018-06-09T07:29:49.037Z,25.5
2018-06-09T07:39:48.318Z,25.8
2018-06-09T07:49:48.091Z,25.9
2018-06-09T07:59:46.814Z,26.3
2018-06-09T08:09:45.981Z,26.6
2018-06-09T08:19:45.505Z,26.4
2018-06-09T08:29:44.774Z,27
2018-06-09T08:39:43.801Z,26.9
2018-06-09T08:49:44.048Z,27.1
2018-06-09T08:59:42.486Z,27.4
2018-06-09T09:09:41.421Z,27.6
2018-06-09T09:19:40.949Z,27.7
2018-06-09T09:29:39.975Z,27.7
2018-06-09T09:39:39.829Z,27.8
2018-06-09T09:49:38.348Z,27.7
2018-06-09T09:59:38.626Z,27.4
2018-06-09T10:09:36.962Z,27.3
2018-06-09T10:19:36.144Z,27
2018-06-09T10:29:35.555Z,27.1
2018-06-09T10:39:34.812Z,27
2018-06-09T10:49:34.081Z,27.1
2018-06-09T10:59:33.270Z,27.1
2018-06-09T11:09:32.655Z,27.4
2018-06-09T11:19:31.515Z,27.5
2018-06-09T11:29:30.953Z,27.2
2018-06-09T11:39:30.209Z,27.2
2018-06-09T11:49:30.302Z,27.1
2018-06-09T11:59:28.882Z,26.8
2018-06-09T12:09:27.818Z,26.1
2018-06-09T12:19:27.431Z,25.9
2018-06-09T12:29:26.519Z,25.6
2018-06-09T12:39:25.399Z,25.4
2018-06-09T12:49:25.212Z,25.3
2018-06-09T12:59:25.127Z,25.2
2018-06-09T13:09:23.678Z,25.1
2018-06-09T13:19:23.113Z,23.8
2018-06-09T13:29:21.804Z,24.1
2018-06-09T13:39:21.330Z,24.3
2018-06-09T13:49:20.686Z,24.6
2018-06-09T13:59:19.245Z,25
2018-06-09T14:09:19.813Z,25.3
2018-06-09T14:19:18.360Z,25.3
2018-06-09T14:29:17.418Z,25.5
2018-06-09T14:39:16.285Z,25.7
2018-06-09T14:49:15.624Z,25.8
2018-06-09T14:59:14.836Z,25.9
2018-06-09T15:09:14.261Z,26
2018-06-09T15:19:13.918Z,25.9
2018-06-09T15:29:12.837Z,25.9
2018-06-09T15:39:11.907Z,26
2018-06-09T15:49:11.154Z,25.9
2018-06-09T15:59:11.021Z,24.4
2018-06-09T16:09:10.021Z,25.1
2018-06-09T16:19:09.171Z,25.4
2018-06-09T16:29:08.564Z,25.4
2018-06-09T16:39:07.216Z,25.4
2018-06-09T16:49:06.938Z,25.3
2018-06-09T16:59:05.530Z,25.2
2018-06-09T17:09:05.089Z,25.2
2018-06-09T17:19:04.788Z,25.1
2018-06-09T17:29:03.288Z,25.1
2018-06-09T17:39:02.836Z,25.1
2018-06-09T17:49:02.652Z,25.1
2018-06-09T17:59:01.606Z,24.9
2018-06-09T18:09:00.543Z,24.9
2018-06-09T18:18:59.685Z,24.8
2018-06-09T18:28:58.796Z,24.8
2018-06-09T18:38:58.529Z,24.8
2018-06-09T18:48:58.603Z,24.8
2018-06-09T18:58:56.422Z,24.8
2018-06-09T19:08:56.575Z,24.8
2018-06-09T19:18:55.005Z,24.8
2018-06-09T19:28:54.469Z,24.8
2018-06-09T19:38:53.559Z,24.8
2018-06-09T19:48:53.051Z,24.8
2018-06-09T19:58:52.231Z,24.9
2018-06-09T20:08:51.153Z,24.8
2018-06-09T20:18:50.568Z,24.8
2018-06-09T20:28:50.122Z,24.6
2018-06-09T20:38:49.649Z,24.4
2018-06-09T20:48:49.473Z,24.3
2018-06-09T20:58:47.561Z,24.1
2018-06-09T21:08:47.970Z,23.9
2018-06-09T21:18:46.087Z,23.8
2018-06-09T21:28:45.024Z,23.7
2018-06-09T21:38:44.937Z,23.6
2018-06-09T21:48:43.925Z,23.5
2018-06-09T21:58:43.657Z,23.5
2018-06-09T22:08:41.982Z,23.4
2018-06-09T22:18:41.399Z,23.4
2018-06-09T22:28:40.973Z,23.4
2018-06-09T22:38:40.228Z,23.4
2018-06-09T22:48:39.722Z,23.3
2018-06-09T22:58:38.832Z,23.3
2018-06-09T23:08:37.955Z,23.2
2018-06-09T23:18:37.433Z,23.2
2018-06-09T23:28:35.752Z,23.1
2018-06-09T23:38:35.435Z,23.1
2018-06-09T23:48:34.315Z,23.1
2018-06-09T23:58:34.056Z,23
